sensor_id;sensor_type;location;lat;lon;timestamp;P1;durP1;ratioP1;P2;durP2;ratioP2
5704;SDS011;2877;48.238;11.160;2024-02-04T00:01:31;9.30;;;2.43;;
5704;SDS011;2877;48.238;11.160;2024-02-04T00:03:57;3.50;;;2.63;;
5704;SDS011;2877;48.238;11.160;2024-02-04T00:06:22;3.40;;;3.10;;
5704;SDS011;2877;48.238;11.160;2024-02-04T00:08:47;2.67;;;2.47;;
5704;SDS011;2877;48.238;11.160;2024-02-04T00:11:13;2.50;;;2.30;;
5704;SDS011;2877;48.238;11.160;2024-02-04T00:13:39;1.93;;;1.83;;
5704;SDS011;2877;48.238;11.160;2024-02-04T00:16:04;2.20;;;2.00;;
5704;SDS011;2877;48.238;11.160;2024-02-04T00:18:30;2.70;;;2.50;;
5704;SDS011;2877;48.238;11.160;2024-02-04T00:20:56;3.07;;;2.87;;
5704;SDS011;2877;48.238;11.160;2024-02-04T00:23:21;3.40;;;3.10;;
5704;SDS011;2877;48.238;11.160;2024-02-04T00:25:47;3.03;;;2.77;;
5704;SDS011;2877;48.238;11.160;2024-02-04T00:28:12;4.07;;;3.67;;
5704;SDS011;2877;48.238;11.160;2024-02-04T00:30:38;8.50;;;3.90;;
5704;SDS011;2877;48.238;11.160;2024-02-04T00:33:04;4.13;;;3.63;;
5704;SDS011;2877;48.238;11.160;2024-02-04T00:35:30;3.20;;;2.90;;
5704;SDS011;2877;48.238;11.160;2024-02-04T00:37:55;3.30;;;3.00;;
5704;SDS011;2877;48.238;11.160;2024-02-04T00:40:22;5.30;;;3.20;;
5704;SDS011;2877;48.238;11.160;2024-02-04T00:42:48;3.50;;;2.53;;
5704;SDS011;2877;48.238;11.160;2024-02-04T00:45:14;4.03;;;3.27;;
5704;SDS011;2877;48.238;11.160;2024-02-04T00:47:39;4.20;;;3.80;;
5704;SDS011;2877;48.238;11.160;2024-02-04T00:50:05;3.80;;;3.50;;
5704;SDS011;2877;48.238;11.160;2024-02-04T00:52:31;5.00;;;3.80;;
5704;SDS011;2877;48.238;11.160;2024-02-04T00:54:57;2.27;;;2.07;;
5704;SDS011;2877;48.238;11.160;2024-02-04T00:57:22;4.40;;;3.00;;
5704;SDS011;2877;48.238;11.160;2024-02-04T00:59:48;3.90;;;3.50;;
5704;SDS011;2877;48.238;11.160;2024-02-04T01:02:15;3.83;;;3.33;;
5704;SDS011;2877;48.238;11.160;2024-02-04T01:04:40;3.50;;;3.20;;
5704;SDS011;2877;48.238;11.160;2024-02-04T01:07:06;4.00;;;3.60;;
5704;SDS011;2877;48.238;11.160;2024-02-04T01:09:32;4.03;;;3.63;;
5704;SDS011;2877;48.238;11.160;2024-02-04T01:11:57;4.60;;;3.90;;
5704;SDS011;2877;48.238;11.160;2024-02-04T01:14:23;4.13;;;3.70;;
5704;SDS011;2877;48.238;11.160;2024-02-04T01:16:48;3.40;;;3.17;;
5704;SDS011;2877;48.238;11.160;2024-02-04T01:19:14;3.37;;;3.03;;
5704;SDS011;2877;48.238;11.160;2024-02-04T01:21:39;3.00;;;2.80;;
5704;SDS011;2877;48.238;11.160;2024-02-04T01:24:05;3.20;;;2.50;;
5704;SDS011;2877;48.238;11.160;2024-02-04T01:26:31;3.20;;;2.90;;
5704;SDS011;2877;48.238;11.160;2024-02-04T01:28:56;3.30;;;3.00;;
5704;SDS011;2877;48.238;11.160;2024-02-04T01:31:22;3.10;;;2.80;;
5704;SDS011;2877;48.238;11.160;2024-02-04T01:33:47;2.80;;;2.60;;
5704;SDS011;2877;48.238;11.160;2024-02-04T01:36:13;3.37;;;3.07;;
5704;SDS011;2877;48.238;11.160;2024-02-04T01:38:38;2.73;;;2.53;;
5704;SDS011;2877;48.238;11.160;2024-02-04T01:41:04;2.87;;;2.67;;
5704;SDS011;2877;48.238;11.160;2024-02-04T01:43:29;3.90;;;2.83;;
5704;SDS011;2877;48.238;11.160;2024-02-04T01:45:56;2.70;;;2.50;;
5704;SDS011;2877;48.238;11.160;2024-02-04T01:48:22;3.30;;;2.90;;
5704;SDS011;2877;48.238;11.160;2024-02-04T01:50:49;2.60;;;2.40;;
5704;SDS011;2877;48.238;11.160;2024-02-04T01:53:17;2.30;;;2.10;;
5704;SDS011;2877;48.238;11.160;2024-02-04T01:55:47;2.30;;;2.10;;
5704;SDS011;2877;48.238;11.160;2024-02-04T01:58:14;3.30;;;3.00;;
5704;SDS011;2877;48.238;11.160;2024-02-04T02:00:40;3.00;;;2.73;;
5704;SDS011;2877;48.238;11.160;2024-02-04T02:03:06;2.83;;;2.47;;
5704;SDS011;2877;48.238;11.160;2024-02-04T02:05:33;3.30;;;2.60;;
5704;SDS011;2877;48.238;11.160;2024-02-04T02:07:58;2.80;;;2.53;;
5704;SDS011;2877;48.238;11.160;2024-02-04T02:10:24;2.30;;;1.90;;
5704;SDS011;2877;48.238;11.160;2024-02-04T02:12:52;2.43;;;2.07;;
5704;SDS011;2877;48.238;11.160;2024-02-04T02:15:27;3.07;;;2.77;;
5704;SDS011;2877;48.238;11.160;2024-02-04T02:17:57;2.87;;;2.67;;
5704;SDS011;2877;48.238;11.160;2024-02-04T02:20:30;2.67;;;2.47;;
5704;SDS011;2877;48.238;11.160;2024-02-04T02:23:19;3.30;;;3.00;;
5704;SDS011;2877;48.238;11.160;2024-02-04T02:25:47;2.60;;;2.40;;
5704;SDS011;2877;48.238;11.160;2024-02-04T02:28:14;3.57;;;3.20;;
5704;SDS011;2877;48.238;11.160;2024-02-04T02:30:40;3.47;;;3.17;;
5704;SDS011;2877;48.238;11.160;2024-02-04T02:33:07;2.57;;;2.40;;
5704;SDS011;2877;48.238;11.160;2024-02-04T02:35:33;3.10;;;2.80;;
5704;SDS011;2877;48.238;11.160;2024-02-04T02:43:04;3.30;;;2.97;;
5704;SDS011;2877;48.238;11.160;2024-02-04T02:45:31;3.00;;;2.80;;
5704;SDS011;2877;48.238;11.160;2024-02-04T02:47:57;3.20;;;3.00;;
5704;SDS011;2877;48.238;11.160;2024-02-04T02:50:23;3.60;;;3.30;;
5704;SDS011;2877;48.238;11.160;2024-02-04T02:52:49;3.33;;;3.03;;
5704;SDS011;2877;48.238;11.160;2024-02-04T02:55:15;2.37;;;2.17;;
5704;SDS011;2877;48.238;11.160;2024-02-04T02:57:41;3.80;;;3.20;;
5704;SDS011;2877;48.238;11.160;2024-02-04T03:00:06;3.73;;;3.33;;
5704;SDS011;2877;48.238;11.160;2024-02-04T03:02:34;2.70;;;2.47;;
5704;SDS011;2877;48.238;11.160;2024-02-04T03:04:59;3.40;;;3.10;;
5704;SDS011;2877;48.238;11.160;2024-02-04T03:07:25;4.77;;;3.50;;
5704;SDS011;2877;48.238;11.160;2024-02-04T03:09:52;3.47;;;3.10;;
5704;SDS011;2877;48.238;11.160;2024-02-04T03:12:18;3.13;;;2.80;;
5704;SDS011;2877;48.238;11.160;2024-02-04T03:14:43;3.90;;;3.50;;
5704;SDS011;2877;48.238;11.160;2024-02-04T03:17:09;3.90;;;2.87;;
5704;SDS011;2877;48.238;11.160;2024-02-04T03:19:34;3.27;;;2.93;;
5704;SDS011;2877;48.238;11.160;2024-02-04T03:22:00;3.40;;;2.87;;
5704;SDS011;2877;48.238;11.160;2024-02-04T03:24:25;3.90;;;3.50;;
5704;SDS011;2877;48.238;11.160;2024-02-04T03:26:51;4.07;;;3.67;;
5704;SDS011;2877;48.238;11.160;2024-02-04T03:29:16;3.23;;;2.93;;
5704;SDS011;2877;48.238;11.160;2024-02-04T03:31:42;5.20;;;3.60;;
5704;SDS011;2877;48.238;11.160;2024-02-04T03:34:07;3.90;;;3.10;;
5704;SDS011;2877;48.238;11.160;2024-02-04T03:36:33;3.70;;;3.40;;
5704;SDS011;2877;48.238;11.160;2024-02-04T03:38:58;4.10;;;3.30;;
5704;SDS011;2877;48.238;11.160;2024-02-04T03:41:24;3.73;;;3.43;;
5704;SDS011;2877;48.238;11.160;2024-02-04T03:43:49;4.47;;;3.47;;
5704;SDS011;2877;48.238;11.160;2024-02-04T03:46:15;4.27;;;3.30;;
5704;SDS011;2877;48.238;11.160;2024-02-04T03:48:41;3.37;;;3.07;;
5704;SDS011;2877;48.238;11.160;2024-02-04T03:51:07;3.70;;;3.40;;
5704;SDS011;2877;48.238;11.160;2024-02-04T03:53:33;3.30;;;2.83;;
5704;SDS011;2877;48.238;11.160;2024-02-04T03:55:59;4.13;;;3.73;;
5704;SDS011;2877;48.238;11.160;2024-02-04T03:58:24;6.43;;;3.97;;
5704;SDS011;2877;48.238;11.160;2024-02-04T04:00:57;3.57;;;3.03;;
5704;SDS011;2877;48.238;11.160;2024-02-04T04:03:23;3.80;;;3.40;;
5704;SDS011;2877;48.238;11.160;2024-02-04T04:05:49;3.67;;;3.33;;
5704;SDS011;2877;48.238;11.160;2024-02-04T04:08:15;2.70;;;2.50;;
5704;SDS011;2877;48.238;11.160;2024-02-04T04:10:42;3.00;;;2.70;;
5704;SDS011;2877;48.238;11.160;2024-02-04T04:13:08;2.70;;;2.50;;
5704;SDS011;2877;48.238;11.160;2024-02-04T04:15:33;2.23;;;2.13;;
5704;SDS011;2877;48.238;11.160;2024-02-04T04:17:59;2.93;;;2.60;;
5704;SDS011;2877;48.238;11.160;2024-02-04T04:20:24;3.07;;;2.87;;
5704;SDS011;2877;48.238;11.160;2024-02-04T04:22:50;3.17;;;2.63;;
5704;SDS011;2877;48.238;11.160;2024-02-04T04:25:15;3.17;;;2.87;;
5704;SDS011;2877;48.238;11.160;2024-02-04T04:27:42;3.67;;;1.97;;
5704;SDS011;2877;48.238;11.160;2024-02-04T04:30:08;3.13;;;2.70;;
5704;SDS011;2877;48.238;11.160;2024-02-04T04:32:34;2.10;;;2.00;;
5704;SDS011;2877;48.238;11.160;2024-02-04T04:35:00;2.93;;;2.70;;
5704;SDS011;2877;48.238;11.160;2024-02-04T04:37:26;2.20;;;2.10;;
5704;SDS011;2877;48.238;11.160;2024-02-04T04:39:51;3.43;;;2.63;;
5704;SDS011;2877;48.238;11.160;2024-02-04T04:42:17;2.73;;;2.13;;
5704;SDS011;2877;48.238;11.160;2024-02-04T04:44:42;3.23;;;3.03;;
5704;SDS011;2877;48.238;11.160;2024-02-04T04:47:08;6.00;;;2.67;;
5704;SDS011;2877;48.238;11.160;2024-02-04T04:49:33;3.00;;;2.80;;
5704;SDS011;2877;48.238;11.160;2024-02-04T04:51:59;3.83;;;2.63;;
5704;SDS011;2877;48.238;11.160;2024-02-04T04:54:25;3.40;;;2.97;;
5704;SDS011;2877;48.238;11.160;2024-02-04T04:56:52;4.10;;;2.43;;
5704;SDS011;2877;48.238;11.160;2024-02-04T04:59:17;2.90;;;2.67;;
5704;SDS011;2877;48.238;11.160;2024-02-04T05:01:46;3.17;;;2.60;;
5704;SDS011;2877;48.238;11.160;2024-02-04T05:04:13;3.37;;;3.07;;
5704;SDS011;2877;48.238;11.160;2024-02-04T05:06:39;2.83;;;2.60;;
5704;SDS011;2877;48.238;11.160;2024-02-04T05:09:05;3.57;;;2.83;;
5704;SDS011;2877;48.238;11.160;2024-02-04T05:11:30;3.43;;;2.63;;
5704;SDS011;2877;48.238;11.160;2024-02-04T05:13:56;3.00;;;2.70;;
5704;SDS011;2877;48.238;11.160;2024-02-04T05:16:21;6.00;;;2.90;;
5704;SDS011;2877;48.238;11.160;2024-02-04T05:18:47;3.20;;;2.50;;
5704;SDS011;2877;48.238;11.160;2024-02-04T05:21:12;4.03;;;3.33;;
5704;SDS011;2877;48.238;11.160;2024-02-04T05:23:38;4.40;;;2.90;;
5704;SDS011;2877;48.238;11.160;2024-02-04T05:26:04;3.97;;;3.00;;
5704;SDS011;2877;48.238;11.160;2024-02-04T05:28:30;3.77;;;3.00;;
5704;SDS011;2877;48.238;11.160;2024-02-04T05:30:56;4.77;;;3.43;;
5704;SDS011;2877;48.238;11.160;2024-02-04T05:33:21;4.20;;;3.00;;
5704;SDS011;2877;48.238;11.160;2024-02-04T05:35:47;7.43;;;3.30;;
5704;SDS011;2877;48.238;11.160;2024-02-04T05:38:12;3.17;;;2.83;;
5704;SDS011;2877;48.238;11.160;2024-02-04T05:40:38;3.07;;;2.67;;
5704;SDS011;2877;48.238;11.160;2024-02-04T05:43:03;5.07;;;3.90;;
5704;SDS011;2877;48.238;11.160;2024-02-04T05:45:33;5.27;;;2.77;;
5704;SDS011;2877;48.238;11.160;2024-02-04T05:47:59;7.10;;;3.70;;
5704;SDS011;2877;48.238;11.160;2024-02-04T05:50:25;4.57;;;3.77;;
5704;SDS011;2877;48.238;11.160;2024-02-04T05:52:50;6.93;;;4.27;;
5704;SDS011;2877;48.238;11.160;2024-02-04T05:55:16;4.07;;;3.67;;
5704;SDS011;2877;48.238;11.160;2024-02-04T05:57:41;5.20;;;3.53;;
5704;SDS011;2877;48.238;11.160;2024-02-04T06:00:09;5.67;;;3.47;;
5704;SDS011;2877;48.238;11.160;2024-02-04T06:02:35;5.50;;;3.83;;
5704;SDS011;2877;48.238;11.160;2024-02-04T06:05:01;7.23;;;3.70;;
5704;SDS011;2877;48.238;11.160;2024-02-04T06:07:27;6.40;;;3.60;;
5704;SDS011;2877;48.238;11.160;2024-02-04T06:09:53;4.67;;;3.80;;
5704;SDS011;2877;48.238;11.160;2024-02-04T06:12:21;6.80;;;3.70;;
5704;SDS011;2877;48.238;11.160;2024-02-04T06:14:47;6.23;;;4.73;;
5704;SDS011;2877;48.238;11.160;2024-02-04T06:17:12;6.40;;;4.30;;
5704;SDS011;2877;48.238;11.160;2024-02-04T06:19:38;4.03;;;3.63;;
5704;SDS011;2877;48.238;11.160;2024-02-04T06:22:03;6.43;;;4.10;;
5704;SDS011;2877;48.238;11.160;2024-02-04T06:24:29;4.97;;;4.47;;
5704;SDS011;2877;48.238;11.160;2024-02-04T06:26:55;4.97;;;3.77;;
5704;SDS011;2877;48.238;11.160;2024-02-04T06:29:21;5.50;;;3.40;;
5704;SDS011;2877;48.238;11.160;2024-02-04T06:31:46;4.90;;;3.73;;
5704;SDS011;2877;48.238;11.160;2024-02-04T06:34:12;5.10;;;3.80;;
5704;SDS011;2877;48.238;11.160;2024-02-04T06:36:38;5.57;;;3.53;;
5704;SDS011;2877;48.238;11.160;2024-02-04T06:39:07;10.10;;;4.00;;
5704;SDS011;2877;48.238;11.160;2024-02-04T06:41:33;5.80;;;4.53;;
5704;SDS011;2877;48.238;11.160;2024-02-04T06:43:59;5.73;;;3.80;;
5704;SDS011;2877;48.238;11.160;2024-02-04T06:46:25;5.37;;;3.23;;
5704;SDS011;2877;48.238;11.160;2024-02-04T06:48:51;7.60;;;4.87;;
5704;SDS011;2877;48.238;11.160;2024-02-04T06:51:18;7.50;;;5.23;;
5704;SDS011;2877;48.238;11.160;2024-02-04T06:53:43;5.70;;;3.33;;
5704;SDS011;2877;48.238;11.160;2024-02-04T06:56:09;4.37;;;3.40;;
5704;SDS011;2877;48.238;11.160;2024-02-04T06:58:37;5.90;;;3.57;;
5704;SDS011;2877;48.238;11.160;2024-02-04T07:01:03;4.53;;;3.83;;
5704;SDS011;2877;48.238;11.160;2024-02-04T07:03:29;4.60;;;3.50;;
5704;SDS011;2877;48.238;11.160;2024-02-04T07:05:55;3.47;;;3.17;;
5704;SDS011;2877;48.238;11.160;2024-02-04T07:08:20;4.63;;;3.40;;
5704;SDS011;2877;48.238;11.160;2024-02-04T07:10:46;8.20;;;3.93;;
5704;SDS011;2877;48.238;11.160;2024-02-04T07:13:11;3.93;;;3.47;;
5704;SDS011;2877;48.238;11.160;2024-02-04T07:15:37;4.27;;;3.87;;
5704;SDS011;2877;48.238;11.160;2024-02-04T07:18:03;4.27;;;2.67;;
5704;SDS011;2877;48.238;11.160;2024-02-04T07:20:29;3.87;;;2.60;;
5704;SDS011;2877;48.238;11.160;2024-02-04T07:22:54;7.43;;;3.90;;
5704;SDS011;2877;48.238;11.160;2024-02-04T07:25:20;5.20;;;3.20;;
5704;SDS011;2877;48.238;11.160;2024-02-04T07:27:46;2.90;;;2.60;;
5704;SDS011;2877;48.238;11.160;2024-02-04T07:30:11;9.13;;;3.67;;
5704;SDS011;2877;48.238;11.160;2024-02-04T07:32:37;8.13;;;4.93;;
5704;SDS011;2877;48.238;11.160;2024-02-04T07:35:02;5.70;;;3.90;;
5704;SDS011;2877;48.238;11.160;2024-02-04T07:37:28;7.23;;;2.87;;
5704;SDS011;2877;48.238;11.160;2024-02-04T07:39:54;5.40;;;4.03;;
5704;SDS011;2877;48.238;11.160;2024-02-04T07:42:19;5.67;;;4.20;;
5704;SDS011;2877;48.238;11.160;2024-02-04T07:44:45;4.17;;;3.27;;
5704;SDS011;2877;48.238;11.160;2024-02-04T07:47:10;4.33;;;3.00;;
5704;SDS011;2877;48.238;11.160;2024-02-04T07:49:36;4.47;;;3.90;;
5704;SDS011;2877;48.238;11.160;2024-02-04T07:52:02;3.20;;;2.80;;
5704;SDS011;2877;48.238;11.160;2024-02-04T07:54:28;4.70;;;2.90;;
5704;SDS011;2877;48.238;11.160;2024-02-04T07:56:53;4.90;;;2.83;;
5704;SDS011;2877;48.238;11.160;2024-02-04T07:59:19;5.80;;;3.87;;
5704;SDS011;2877;48.238;11.160;2024-02-04T08:01:45;7.40;;;3.10;;
5704;SDS011;2877;48.238;11.160;2024-02-04T08:04:10;3.20;;;2.70;;
5704;SDS011;2877;48.238;11.160;2024-02-04T08:06:37;4.67;;;1.87;;
5704;SDS011;2877;48.238;11.160;2024-02-04T08:09:03;2.40;;;2.20;;
5704;SDS011;2877;48.238;11.160;2024-02-04T08:11:29;3.47;;;2.30;;
5704;SDS011;2877;48.238;11.160;2024-02-04T08:13:54;2.67;;;2.40;;
5704;SDS011;2877;48.238;11.160;2024-02-04T08:16:20;8.30;;;3.07;;
5704;SDS011;2877;48.238;11.160;2024-02-04T08:18:46;4.70;;;3.30;;
5704;SDS011;2877;48.238;11.160;2024-02-04T08:21:12;7.13;;;3.70;;
5704;SDS011;2877;48.238;11.160;2024-02-04T08:23:37;9.07;;;4.67;;
5704;SDS011;2877;48.238;11.160;2024-02-04T08:26:04;9.63;;;4.80;;
5704;SDS011;2877;48.238;11.160;2024-02-04T08:28:30;5.40;;;3.13;;
5704;SDS011;2877;48.238;11.160;2024-02-04T08:30:56;5.13;;;3.03;;
5704;SDS011;2877;48.238;11.160;2024-02-04T08:33:21;2.43;;;1.70;;
5704;SDS011;2877;48.238;11.160;2024-02-04T08:35:47;8.27;;;4.30;;
5704;SDS011;2877;48.238;11.160;2024-02-04T08:38:13;6.60;;;3.30;;
5704;SDS011;2877;48.238;11.160;2024-02-04T08:40:39;7.23;;;3.80;;
5704;SDS011;2877;48.238;11.160;2024-02-04T08:43:05;5.07;;;2.97;;
5704;SDS011;2877;48.238;11.160;2024-02-04T08:45:30;5.57;;;3.50;;
5704;SDS011;2877;48.238;11.160;2024-02-04T08:47:56;9.70;;;2.93;;
5704;SDS011;2877;48.238;11.160;2024-02-04T08:50:21;5.67;;;2.67;;
5704;SDS011;2877;48.238;11.160;2024-02-04T08:52:47;1.97;;;1.80;;
5704;SDS011;2877;48.238;11.160;2024-02-04T08:55:12;2.70;;;1.83;;
5704;SDS011;2877;48.238;11.160;2024-02-04T08:57:38;3.40;;;1.90;;
5704;SDS011;2877;48.238;11.160;2024-02-04T09:00:04;5.07;;;2.60;;
5704;SDS011;2877;48.238;11.160;2024-02-04T09:02:33;4.80;;;2.47;;
5704;SDS011;2877;48.238;11.160;2024-02-04T09:05:02;2.00;;;1.80;;
5704;SDS011;2877;48.238;11.160;2024-02-04T09:07:28;3.43;;;2.17;;
5704;SDS011;2877;48.238;11.160;2024-02-04T09:09:53;5.57;;;2.50;;
5704;SDS011;2877;48.238;11.160;2024-02-04T09:12:19;3.47;;;2.83;;
5704;SDS011;2877;48.238;11.160;2024-02-04T09:14:44;2.63;;;1.90;;
5704;SDS011;2877;48.238;11.160;2024-02-04T09:17:10;4.23;;;1.97;;
5704;SDS011;2877;48.238;11.160;2024-02-04T09:19:35;4.20;;;2.67;;
5704;SDS011;2877;48.238;11.160;2024-02-04T09:22:01;4.00;;;1.90;;
5704;SDS011;2877;48.238;11.160;2024-02-04T09:24:27;2.47;;;1.93;;
5704;SDS011;2877;48.238;11.160;2024-02-04T09:26:53;2.63;;;2.10;;
5704;SDS011;2877;48.238;11.160;2024-02-04T09:29:19;1.93;;;1.77;;
5704;SDS011;2877;48.238;11.160;2024-02-04T09:31:45;1.80;;;1.70;;
5704;SDS011;2877;48.238;11.160;2024-02-04T09:34:11;4.50;;;2.93;;
5704;SDS011;2877;48.238;11.160;2024-02-04T09:36:36;9.60;;;5.97;;
5704;SDS011;2877;48.238;11.160;2024-02-04T09:39:02;3.17;;;2.10;;
5704;SDS011;2877;48.238;11.160;2024-02-04T09:41:28;8.70;;;2.10;;
5704;SDS011;2877;48.238;11.160;2024-02-04T09:43:54;3.57;;;2.03;;
5704;SDS011;2877;48.238;11.160;2024-02-04T09:46:21;1.73;;;1.33;;
5704;SDS011;2877;48.238;11.160;2024-02-04T09:48:46;3.47;;;2.20;;
5704;SDS011;2877;48.238;11.160;2024-02-04T09:51:14;2.20;;;1.50;;
5704;SDS011;2877;48.238;11.160;2024-02-04T09:53:43;2.03;;;1.93;;
5704;SDS011;2877;48.238;11.160;2024-02-04T09:56:09;2.60;;;2.03;;
5704;SDS011;2877;48.238;11.160;2024-02-04T09:58:35;2.40;;;2.20;;
5704;SDS011;2877;48.238;11.160;2024-02-04T10:01:01;4.57;;;2.80;;
5704;SDS011;2877;48.238;11.160;2024-02-04T10:03:29;3.40;;;2.60;;
5704;SDS011;2877;48.238;11.160;2024-02-04T10:05:55;4.60;;;3.20;;
5704;SDS011;2877;48.238;11.160;2024-02-04T10:08:21;3.33;;;1.90;;
5704;SDS011;2877;48.238;11.160;2024-02-04T10:10:46;6.80;;;2.00;;
5704;SDS011;2877;48.238;11.160;2024-02-04T10:13:12;4.20;;;2.10;;
5704;SDS011;2877;48.238;11.160;2024-02-04T10:15:38;1.80;;;1.70;;
5704;SDS011;2877;48.238;11.160;2024-02-04T10:18:04;2.70;;;1.90;;
5704;SDS011;2877;48.238;11.160;2024-02-04T10:20:30;2.23;;;1.60;;
5704;SDS011;2877;48.238;11.160;2024-02-04T10:22:57;2.60;;;2.13;;
5704;SDS011;2877;48.238;11.160;2024-02-04T10:25:22;2.80;;;1.53;;
5704;SDS011;2877;48.238;11.160;2024-02-04T10:27:48;3.40;;;2.13;;
5704;SDS011;2877;48.238;11.160;2024-02-04T10:30:14;4.97;;;2.53;;
5704;SDS011;2877;48.238;11.160;2024-02-04T10:32:41;5.20;;;3.60;;
5704;SDS011;2877;48.238;11.160;2024-02-04T10:35:07;4.77;;;2.73;;
5704;SDS011;2877;48.238;11.160;2024-02-04T10:37:33;5.73;;;3.00;;
5704;SDS011;2877;48.238;11.160;2024-02-04T10:39:59;1.07;;;1.00;;
5704;SDS011;2877;48.238;11.160;2024-02-04T10:42:26;3.13;;;2.67;;
5704;SDS011;2877;48.238;11.160;2024-02-04T10:44:53;2.13;;;2.00;;
5704;SDS011;2877;48.238;11.160;2024-02-04T10:47:22;2.37;;;2.17;;
5704;SDS011;2877;48.238;11.160;2024-02-04T10:49:52;2.93;;;2.10;;
5704;SDS011;2877;48.238;11.160;2024-02-04T10:52:22;3.80;;;1.90;;
5704;SDS011;2877;48.238;11.160;2024-02-04T10:54:51;2.47;;;2.03;;
5704;SDS011;2877;48.238;11.160;2024-02-04T10:57:20;0.73;;;0.70;;
5704;SDS011;2877;48.238;11.160;2024-02-04T10:59:47;1.70;;;1.17;;
5704;SDS011;2877;48.238;11.160;2024-02-04T11:02:14;3.40;;;1.60;;
5704;SDS011;2877;48.238;11.160;2024-02-04T11:04:41;2.53;;;2.10;;
5704;SDS011;2877;48.238;11.160;2024-02-04T11:07:07;1.63;;;1.53;;
5704;SDS011;2877;48.238;11.160;2024-02-04T11:09:35;1.33;;;1.23;;
5704;SDS011;2877;48.238;11.160;2024-02-04T11:12:01;3.13;;;1.20;;
5704;SDS011;2877;48.238;11.160;2024-02-04T11:14:32;2.03;;;1.30;;
5704;SDS011;2877;48.238;11.160;2024-02-04T11:25:52;2.03;;;1.40;;
5704;SDS011;2877;48.238;11.160;2024-02-04T11:28:20;1.17;;;1.07;;
5704;SDS011;2877;48.238;11.160;2024-02-04T11:30:47;1.70;;;1.60;;
5704;SDS011;2877;48.238;11.160;2024-02-04T11:33:17;1.20;;;1.10;;
5704;SDS011;2877;48.238;11.160;2024-02-04T11:35:44;1.27;;;1.17;;
5704;SDS011;2877;48.238;11.160;2024-02-04T11:38:09;3.50;;;1.50;;
5704;SDS011;2877;48.238;11.160;2024-02-04T11:40:36;1.50;;;1.40;;
5704;SDS011;2877;48.238;11.160;2024-02-04T11:43:12;0.90;;;0.90;;
5704;SDS011;2877;48.238;11.160;2024-02-04T11:45:39;1.03;;;1.03;;
5704;SDS011;2877;48.238;11.160;2024-02-04T11:48:07;1.47;;;1.03;;
5704;SDS011;2877;48.238;11.160;2024-02-04T11:50:34;2.20;;;1.07;;
5704;SDS011;2877;48.238;11.160;2024-02-04T11:53:07;1.50;;;1.40;;
5704;SDS011;2877;48.238;11.160;2024-02-04T11:55:34;1.83;;;1.73;;
5704;SDS011;2877;48.238;11.160;2024-02-04T11:58:00;2.23;;;1.50;;
5704;SDS011;2877;48.238;11.160;2024-02-04T12:00:26;3.03;;;1.23;;
5704;SDS011;2877;48.238;11.160;2024-02-04T12:05:27;1.23;;;1.17;;
5704;SDS011;2877;48.238;11.160;2024-02-04T12:07:55;1.50;;;1.40;;
5704;SDS011;2877;48.238;11.160;2024-02-04T12:10:20;1.20;;;1.20;;
5704;SDS011;2877;48.238;11.160;2024-02-04T12:12:46;4.60;;;1.50;;
5704;SDS011;2877;48.238;11.160;2024-02-04T12:15:12;1.43;;;1.33;;
5704;SDS011;2877;48.238;11.160;2024-02-04T12:17:39;2.87;;;1.20;;
5704;SDS011;2877;48.238;11.160;2024-02-04T12:20:04;1.37;;;1.00;;
5704;SDS011;2877;48.238;11.160;2024-02-04T12:22:31;0.90;;;0.90;;
5704;SDS011;2877;48.238;11.160;2024-02-04T12:24:58;1.73;;;1.03;;
5704;SDS011;2877;48.238;11.160;2024-02-04T12:27:24;1.10;;;0.93;;
5704;SDS011;2877;48.238;11.160;2024-02-04T12:29:51;1.20;;;1.10;;
5704;SDS011;2877;48.238;11.160;2024-02-04T12:32:17;5.13;;;1.10;;
5704;SDS011;2877;48.238;11.160;2024-02-04T12:34:48;1.53;;;1.10;;
5704;SDS011;2877;48.238;11.160;2024-02-04T12:37:18;1.07;;;1.00;;
5704;SDS011;2877;48.238;11.160;2024-02-04T12:39:44;2.50;;;1.20;;
5704;SDS011;2877;48.238;11.160;2024-02-04T12:42:10;1.70;;;1.23;;
5704;SDS011;2877;48.238;11.160;2024-02-04T12:44:35;1.73;;;0.90;;
5704;SDS011;2877;48.238;11.160;2024-02-04T12:47:01;1.10;;;1.00;;
5704;SDS011;2877;48.238;11.160;2024-02-04T12:49:27;1.47;;;1.00;;
5704;SDS011;2877;48.238;11.160;2024-02-04T12:52:03;3.50;;;1.23;;
5704;SDS011;2877;48.238;11.160;2024-02-04T12:54:29;1.50;;;1.30;;
5704;SDS011;2877;48.238;11.160;2024-02-04T12:56:55;1.23;;;1.13;;
5704;SDS011;2877;48.238;11.160;2024-02-04T13:01:56;1.90;;;0.80;;
5704;SDS011;2877;48.238;11.160;2024-02-04T13:04:23;1.37;;;0.93;;
5704;SDS011;2877;48.238;11.160;2024-02-04T13:06:49;0.87;;;0.87;;
5704;SDS011;2877;48.238;11.160;2024-02-04T13:09:16;1.20;;;1.00;;
5704;SDS011;2877;48.238;11.160;2024-02-04T13:11:43;1.63;;;1.40;;
5704;SDS011;2877;48.238;11.160;2024-02-04T13:14:09;2.50;;;1.10;;
5704;SDS011;2877;48.238;11.160;2024-02-04T13:16:34;1.90;;;1.27;;
5704;SDS011;2877;48.238;11.160;2024-02-04T13:19:03;2.80;;;1.50;;
5704;SDS011;2877;48.238;11.160;2024-02-04T13:21:29;1.17;;;1.17;;
5704;SDS011;2877;48.238;11.160;2024-02-04T13:23:55;1.37;;;1.27;;
5704;SDS011;2877;48.238;11.160;2024-02-04T13:26:21;2.00;;;1.50;;
5704;SDS011;2877;48.238;11.160;2024-02-04T13:28:47;2.00;;;1.73;;
5704;SDS011;2877;48.238;11.160;2024-02-04T13:31:13;1.57;;;1.30;;
5704;SDS011;2877;48.238;11.160;2024-02-04T13:33:39;3.13;;;1.17;;
5704;SDS011;2877;48.238;11.160;2024-02-04T13:36:05;1.37;;;1.27;;
5704;SDS011;2877;48.238;11.160;2024-02-04T13:38:34;1.30;;;1.20;;
5704;SDS011;2877;48.238;11.160;2024-02-04T13:41:01;1.33;;;1.10;;
5704;SDS011;2877;48.238;11.160;2024-02-04T13:43:29;1.50;;;1.40;;
5704;SDS011;2877;48.238;11.160;2024-02-04T13:45:55;0.93;;;0.93;;
5704;SDS011;2877;48.238;11.160;2024-02-04T13:48:20;2.13;;;1.43;;
5704;SDS011;2877;48.238;11.160;2024-02-04T13:50:47;1.60;;;1.50;;
5704;SDS011;2877;48.238;11.160;2024-02-04T13:53:13;1.37;;;1.27;;
5704;SDS011;2877;48.238;11.160;2024-02-04T13:55:39;2.23;;;1.57;;
5704;SDS011;2877;48.238;11.160;2024-02-04T13:58:04;1.87;;;1.67;;
5704;SDS011;2877;48.238;11.160;2024-02-04T14:00:30;1.77;;;1.67;;
5704;SDS011;2877;48.238;11.160;2024-02-04T14:02:56;2.20;;;1.10;;
5704;SDS011;2877;48.238;11.160;2024-02-04T14:05:21;1.43;;;1.30;;
5704;SDS011;2877;48.238;11.160;2024-02-04T14:07:48;1.43;;;1.07;;
5704;SDS011;2877;48.238;11.160;2024-02-04T14:10:14;4.23;;;1.20;;
5704;SDS011;2877;48.238;11.160;2024-02-04T14:12:39;0.97;;;0.97;;
5704;SDS011;2877;48.238;11.160;2024-02-04T14:15:09;2.43;;;1.10;;
5704;SDS011;2877;48.238;11.160;2024-02-04T14:17:34;1.37;;;1.27;;
5704;SDS011;2877;48.238;11.160;2024-02-04T14:20:00;1.77;;;1.10;;
5704;SDS011;2877;48.238;11.160;2024-02-04T14:22:25;1.30;;;1.10;;
5704;SDS011;2877;48.238;11.160;2024-02-04T14:24:52;1.23;;;1.13;;
5704;SDS011;2877;48.238;11.160;2024-02-04T14:27:18;4.07;;;2.80;;
5704;SDS011;2877;48.238;11.160;2024-02-04T14:29:43;2.57;;;1.50;;
5704;SDS011;2877;48.238;11.160;2024-02-04T14:32:09;1.33;;;0.90;;
5704;SDS011;2877;48.238;11.160;2024-02-04T14:34:35;1.33;;;1.23;;
5704;SDS011;2877;48.238;11.160;2024-02-04T14:37:00;7.27;;;1.17;;
5704;SDS011;2877;48.238;11.160;2024-02-04T14:39:26;1.10;;;1.10;;
5704;SDS011;2877;48.238;11.160;2024-02-04T14:41:52;4.27;;;1.20;;
5704;SDS011;2877;48.238;11.160;2024-02-04T14:44:19;5.07;;;2.73;;
5704;SDS011;2877;48.238;11.160;2024-02-04T14:46:45;3.43;;;2.30;;
5704;SDS011;2877;48.238;11.160;2024-02-04T14:49:10;2.23;;;1.40;;
5704;SDS011;2877;48.238;11.160;2024-02-04T14:51:39;2.50;;;1.50;;
5704;SDS011;2877;48.238;11.160;2024-02-04T14:54:06;7.60;;;1.80;;
5704;SDS011;2877;48.238;11.160;2024-02-04T14:56:40;3.50;;;2.67;;
5704;SDS011;2877;48.238;11.160;2024-02-04T14:59:09;4.90;;;1.90;;
5704;SDS011;2877;48.238;11.160;2024-02-04T15:01:36;2.93;;;2.10;;
5704;SDS011;2877;48.238;11.160;2024-02-04T15:04:09;3.37;;;1.90;;
5704;SDS011;2877;48.238;11.160;2024-02-04T15:06:34;4.40;;;2.00;;
5704;SDS011;2877;48.238;11.160;2024-02-04T15:09:00;1.40;;;1.30;;
5704;SDS011;2877;48.238;11.160;2024-02-04T15:11:26;6.50;;;2.33;;
5704;SDS011;2877;48.238;11.160;2024-02-04T15:13:54;11.40;;;1.80;;